createdAt,value
2019-02-27T00:02:15.504Z,55.00
2019-02-27T00:04:44.870Z,55.00
2019-02-27T00:07:14.251Z,55.00
2019-02-27T00:09:43.772Z,55.10
2019-02-27T00:12:13.148Z,55.10
2019-02-27T00:14:42.510Z,55.20
2019-02-27T00:17:11.912Z,55.20
2019-02-27T00:19:42.332Z,55.30
2019-02-27T00:22:11.706Z,55.30
2019-02-27T00:24:41.111Z,55.30
2019-02-27T00:27:14.616Z,55.40
2019-02-27T00:29:41.565Z,55.40
2019-02-27T00:32:11.162Z,55.50
2019-02-27T00:34:40.535Z,55.60
2019-02-27T00:37:09.918Z,55.70
2019-02-27T00:39:39.282Z,55.80
2019-02-27T00:42:08.727Z,55.90
2019-02-27T00:44:38.126Z,55.90
2019-02-27T00:47:07.580Z,55.80
2019-02-27T00:49:37.107Z,55.80
2019-02-27T00:52:06.491Z,55.90
2019-02-27T00:54:35.842Z,56.00
2019-02-27T00:57:05.210Z,55.90
2019-02-27T00:59:34.600Z,56.10
2019-02-27T01:02:04.375Z,56.20
2019-02-27T01:04:35.203Z,56.10
2019-02-27T01:07:05.061Z,56.20
2019-02-27T01:09:34.406Z,56.20
2019-02-27T01:12:03.775Z,56.20
2019-02-27T01:14:36.879Z,56.30
2019-02-27T01:17:04.521Z,56.30
2019-02-27T01:19:38.500Z,56.30
2019-02-27T01:22:05.028Z,56.30
2019-02-27T01:24:34.582Z,56.50
2019-02-27T01:27:05.166Z,56.50
2019-02-27T01:29:34.891Z,56.60
2019-02-27T01:32:04.319Z,56.70
2019-02-27T01:34:33.693Z,56.60
2019-02-27T01:37:03.161Z,56.60
2019-02-27T01:39:32.626Z,56.70
2019-02-27T01:42:02.357Z,56.90
2019-02-27T01:44:31.823Z,56.90
2019-02-27T01:47:02.303Z,57.10
2019-02-27T01:49:32.809Z,57.00
2019-02-27T01:52:02.253Z,57.00
2019-02-27T01:54:31.708Z,56.90
2019-02-27T01:57:02.956Z,56.90
2019-02-27T01:59:32.215Z,57.20
2019-02-27T02:02:03.504Z,57.20
2019-02-27T02:04:33.560Z,57.20
2019-02-27T02:07:03.984Z,57.20
2019-02-27T02:09:36.121Z,57.20
2019-02-27T02:12:14.148Z,57.30
2019-02-27T02:14:49.427Z,57.40
2019-02-27T02:17:42.787Z,57.50
2019-02-27T02:20:31.581Z,57.40
2019-02-27T02:23:14.243Z,57.40
2019-02-27T02:25:50.713Z,57.40
2019-02-27T02:28:38.158Z,57.50
2019-02-27T02:31:19.274Z,58.20
2019-02-27T02:34:14.579Z,57.60
2019-02-27T02:37:02.841Z,57.60
2019-02-27T02:39:59.670Z,57.70
2019-02-27T02:42:51.033Z,57.80
2019-02-27T02:45:32.518Z,57.70
2019-02-27T02:48:09.238Z,57.70
2019-02-27T02:50:54.324Z,57.70
2019-02-27T02:53:33.551Z,58.00
2019-02-27T02:56:23.987Z,57.90
2019-02-27T02:59:10.860Z,57.90
2019-02-27T03:01:50.180Z,57.90
2019-02-27T03:04:34.613Z,58.00
2019-02-27T03:07:10.100Z,58.00
2019-02-27T03:10:00.060Z,58.10
2019-02-27T03:12:35.815Z,58.20
2019-02-27T03:15:17.149Z,58.30
2019-02-27T03:17:54.830Z,58.30
2019-02-27T03:20:51.886Z,58.30
2019-02-27T03:23:30.673Z,58.20
2019-02-27T03:26:16.774Z,58.30
2019-02-27T03:29:16.967Z,58.30
2019-02-27T03:32:07.402Z,58.50
2019-02-27T03:35:13.063Z,58.50
2019-02-27T03:38:00.403Z,59.20
2019-02-27T03:40:45.187Z,58.60
2019-02-27T03:43:37.238Z,58.70
2019-02-27T03:46:24.508Z,58.70
2019-02-27T03:49:05.624Z,59.40
2019-02-27T03:51:53.191Z,58.90
2019-02-27T03:54:25.674Z,58.90
2019-02-27T03:57:18.964Z,59.10
2019-02-27T04:00:03.636Z,58.90
2019-02-27T04:02:48.154Z,58.80
2019-02-27T04:05:32.096Z,59.00
2019-02-27T04:08:08.865Z,59.00
2019-02-27T04:10:38.819Z,59.00
2019-02-27T04:13:08.262Z,59.10
2019-02-27T04:15:37.698Z,59.10
2019-02-27T04:18:05.993Z,59.20
2019-02-27T04:20:35.714Z,59.40
2019-02-27T04:23:11.194Z,59.20
2019-02-27T04:25:36.862Z,59.40
2019-02-27T04:28:06.210Z,59.30
2019-02-27T04:30:35.551Z,59.30
2019-02-27T04:33:05.120Z,59.40
2019-02-27T04:35:34.475Z,59.40
2019-02-27T04:38:03.925Z,59.40
2019-02-27T04:40:33.377Z,59.50
2019-02-27T04:43:02.740Z,59.40
2019-02-27T04:45:32.107Z,59.40
2019-02-27T04:48:01.568Z,59.30
2019-02-27T04:50:30.992Z,59.40
2019-02-27T04:53:03.410Z,59.40
2019-02-27T04:55:32.760Z,59.50
2019-02-27T04:58:02.201Z,59.80
2019-02-27T05:00:31.594Z,59.20
2019-02-27T05:03:00.941Z,59.90
2019-02-27T05:05:30.426Z,59.80
2019-02-27T05:07:59.886Z,59.90
2019-02-27T05:10:29.327Z,60.00
2019-02-27T05:12:58.687Z,59.90
2019-02-27T05:15:28.310Z,60.00
2019-02-27T05:17:58.860Z,59.90
2019-02-27T05:20:28.352Z,59.90
2019-02-27T05:23:00.128Z,60.00
2019-02-27T05:25:28.823Z,60.00
2019-02-27T05:28:01.060Z,59.90
2019-02-27T05:30:30.390Z,60.10
2019-02-27T05:33:02.147Z,60.00
2019-02-27T05:35:31.020Z,60.10
2019-02-27T05:38:01.446Z,60.10
2019-02-27T05:40:30.823Z,60.10
2019-02-27T05:43:00.166Z,60.20
2019-02-27T05:45:31.152Z,60.20
2019-02-27T05:48:00.689Z,60.20
2019-02-27T05:50:34.006Z,60.20
2019-02-27T05:53:01.252Z,60.20
2019-02-27T05:55:30.586Z,60.20
2019-02-27T05:57:59.948Z,60.20
2019-02-27T06:00:29.907Z,60.30
2019-02-27T06:02:59.708Z,60.30
2019-02-27T06:05:29.170Z,60.30
2019-02-27T06:08:02.043Z,60.30
2019-02-27T06:10:29.599Z,60.40
2019-02-27T06:12:59.064Z,61.20
2019-02-27T06:15:29.170Z,60.40
2019-02-27T06:17:58.823Z,60.50
2019-02-27T06:20:28.166Z,60.40
2019-02-27T06:22:57.524Z,60.70
2019-02-27T06:25:26.914Z,60.70
2019-02-27T06:27:56.337Z,60.70
2019-02-27T06:30:27.974Z,60.60
2019-02-27T06:32:56.781Z,60.80
2019-02-27T06:35:26.452Z,61.60
2019-02-27T06:37:55.896Z,60.80
2019-02-27T06:40:25.628Z,61.00
2019-02-27T06:42:56.820Z,60.90
2019-02-27T06:45:26.131Z,60.90
2019-02-27T06:47:55.486Z,61.10
2019-02-27T06:50:25.515Z,61.10
2019-02-27T06:52:55.517Z,61.10
2019-02-27T06:55:25.547Z,61.20
2019-02-27T06:57:56.246Z,61.20
2019-02-27T07:00:25.975Z,61.40
2019-02-27T07:02:56.121Z,61.30
2019-02-27T07:05:25.758Z,61.40
2019-02-27T07:07:55.140Z,61.50
2019-02-27T07:10:24.538Z,61.50
2019-02-27T07:12:54.723Z,61.60
2019-02-27T07:15:24.875Z,61.60
2019-02-27T07:17:54.413Z,62.00
2019-02-27T07:20:24.556Z,61.60
2019-02-27T07:22:54.948Z,61.60
2019-02-27T07:25:24.295Z,61.70
2019-02-27T07:27:53.673Z,61.90
2019-02-27T07:30:23.933Z,61.70
2019-02-27T07:32:53.482Z,61.80
2019-02-27T07:35:25.413Z,61.80
2019-02-27T07:37:53.939Z,61.90
2019-02-27T07:40:23.729Z,61.80
2019-02-27T07:42:53.093Z,61.90
2019-02-27T07:45:23.228Z,61.90
2019-02-27T07:47:52.677Z,61.80
2019-02-27T07:50:22.404Z,62.00
2019-02-27T07:52:52.200Z,62.00
2019-02-27T07:55:23.638Z,62.40
2019-02-27T07:57:53.312Z,62.30
2019-02-27T08:00:23.415Z,62.00
2019-02-27T08:02:53.415Z,62.00
2019-02-27T08:05:22.883Z,62.10
2019-02-27T08:07:52.333Z,62.40
2019-02-27T08:10:25.965Z,62.00
2019-02-27T08:12:56.598Z,62.00
2019-02-27T08:15:26.249Z,62.00
2019-02-27T08:17:58.019Z,62.00
2019-02-27T08:20:26.853Z,62.10
2019-02-27T08:22:56.787Z,62.20
2019-02-27T08:25:27.264Z,62.10
2019-02-27T08:27:56.636Z,62.20
2019-02-27T08:30:29.954Z,62.30
2019-02-27T08:32:59.620Z,62.20
2019-02-27T08:35:30.695Z,63.10
2019-02-27T08:38:02.802Z,62.30
2019-02-27T08:40:31.248Z,62.30
2019-02-27T08:43:01.042Z,62.10
2019-02-27T08:45:30.569Z,62.20
2019-02-27T08:48:00.100Z,62.70
2019-02-27T08:50:31.757Z,62.70
2019-02-27T08:53:00.709Z,62.30
2019-02-27T08:55:30.252Z,62.40
2019-02-27T08:57:59.814Z,63.80
2019-02-27T09:00:31.945Z,62.50
2019-02-27T09:03:03.548Z,62.80
2019-02-27T09:05:33.352Z,62.70
2019-02-27T09:08:07.299Z,62.40
2019-02-27T09:10:36.756Z,63.10
2019-02-27T09:13:06.700Z,62.60
2019-02-27T09:15:36.316Z,64.20
2019-02-27T09:18:06.098Z,62.90
2019-02-27T09:20:35.622Z,64.00
2019-02-27T09:23:05.078Z,63.00
2019-02-27T09:25:36.731Z,63.00
2019-02-27T09:28:08.774Z,62.90
2019-02-27T09:30:37.110Z,62.80
2019-02-27T09:33:06.827Z,63.30
2019-02-27T09:35:38.670Z,62.90
2019-02-27T09:38:08.667Z,63.00
2019-02-27T09:40:39.679Z,62.90
2019-02-27T09:43:09.632Z,62.90
2019-02-27T09:45:39.228Z,62.90
2019-02-27T09:48:09.134Z,63.30
2019-02-27T09:50:49.115Z,63.20
2019-02-27T09:53:18.837Z,63.20
2019-02-27T09:55:53.444Z,63.20
2019-02-27T09:58:20.064Z,63.70
2019-02-27T10:00:59.213Z,63.40
2019-02-27T10:03:26.759Z,63.20
2019-02-27T10:05:56.469Z,63.30
2019-02-27T10:08:27.734Z,63.30
2019-02-27T10:10:57.291Z,63.10
2019-02-27T10:13:26.841Z,63.20
2019-02-27T10:16:00.525Z,63.50
2019-02-27T10:18:27.791Z,63.40
2019-02-27T10:20:57.475Z,63.30
2019-02-27T10:23:30.409Z,63.50
2019-02-27T10:25:58.509Z,63.10
2019-02-27T10:28:28.004Z,63.20
2019-02-27T10:30:57.603Z,63.20
2019-02-27T10:33:27.351Z,63.00
2019-02-27T10:35:56.901Z,63.20
2019-02-27T10:38:26.826Z,63.10
2019-02-27T10:40:56.953Z,63.00
2019-02-27T10:43:26.767Z,63.30
2019-02-27T10:45:56.767Z,63.00
2019-02-27T10:48:29.338Z,62.00
2019-02-27T10:51:00.657Z,61.60
2019-02-27T10:53:30.187Z,62.00
2019-02-27T10:55:59.799Z,61.70
2019-02-27T10:58:29.851Z,61.60
2019-02-27T11:01:01.123Z,61.70
2019-02-27T11:03:31.617Z,62.00
2019-02-27T11:06:02.873Z,61.50
2019-02-27T11:08:32.871Z,61.00
2019-02-27T11:11:02.655Z,60.90
2019-02-27T11:13:32.345Z,61.90
2019-02-27T11:16:02.242Z,61.00
2019-02-27T11:18:31.863Z,61.10
2019-02-27T11:21:01.427Z,60.80
2019-02-27T11:23:31.111Z,61.00
2019-02-27T11:26:00.580Z,60.90
2019-02-27T11:28:30.659Z,60.60
2019-02-27T11:31:00.581Z,61.00
2019-02-27T11:33:32.395Z,60.90
2019-02-27T11:36:03.174Z,60.30
2019-02-27T11:38:32.553Z,60.20
2019-02-27T11:41:02.015Z,59.90
2019-02-27T11:43:31.599Z,60.20
2019-02-27T11:46:01.137Z,60.20
2019-02-27T11:48:30.807Z,60.00
2019-02-27T11:51:01.607Z,59.90
2019-02-27T11:53:35.687Z,59.70
2019-02-27T11:56:02.650Z,59.90
2019-02-27T11:58:32.357Z,59.90
2019-02-27T12:01:02.225Z,59.80
2019-02-27T12:03:33.786Z,59.80
2019-02-27T12:06:05.294Z,60.00
2019-02-27T12:08:34.879Z,59.70
2019-02-27T12:11:05.098Z,59.90
2019-02-27T12:13:35.528Z,59.80
2019-02-27T12:16:06.391Z,59.60
2019-02-27T12:18:35.931Z,59.40
2019-02-27T12:21:05.699Z,59.20
2019-02-27T12:23:35.286Z,59.10
2019-02-27T12:26:04.941Z,59.10
2019-02-27T12:28:34.581Z,58.90
2019-02-27T12:31:08.072Z,58.90
2019-02-27T12:33:37.274Z,59.10
2019-02-27T12:36:08.950Z,59.10
2019-02-27T12:38:39.298Z,59.00
2019-02-27T12:41:10.222Z,59.00
2019-02-27T12:43:39.728Z,58.80
2019-02-27T12:46:11.221Z,58.80
2019-02-27T12:48:40.882Z,59.00
2019-02-27T12:51:10.809Z,58.60
2019-02-27T12:53:42.313Z,58.60
2019-02-27T12:56:14.652Z,58.40
2019-02-27T12:58:45.192Z,58.30
2019-02-27T13:01:16.958Z,58.40
2019-02-27T13:03:46.545Z,57.80
2019-02-27T13:06:16.132Z,58.10
2019-02-27T13:08:45.634Z,57.50
2019-02-27T13:11:15.095Z,57.50
2019-02-27T13:13:44.560Z,57.20
2019-02-27T13:16:14.559Z,57.20
2019-02-27T13:18:46.408Z,57.00
2019-02-27T13:21:20.198Z,56.70
2019-02-27T13:23:47.016Z,56.60
2019-02-27T13:26:16.558Z,56.40
2019-02-27T13:28:48.823Z,56.90
2019-02-27T13:31:20.660Z,56.50
2019-02-27T13:33:50.234Z,56.20
2019-02-27T13:36:19.970Z,56.50
2019-02-27T13:38:49.514Z,56.20
2019-02-27T13:41:20.633Z,56.30
2019-02-27T13:43:51.732Z,56.10
2019-02-27T13:46:22.730Z,55.70
2019-02-27T13:48:54.847Z,55.40
2019-02-27T13:51:24.948Z,55.60
2019-02-27T13:53:54.524Z,55.50
2019-02-27T13:56:25.108Z,54.80
2019-02-27T13:58:55.695Z,55.50
2019-02-27T14:01:28.459Z,55.20
2019-02-27T14:03:56.291Z,55.10
2019-02-27T14:06:28.627Z,54.50
2019-02-27T14:08:58.224Z,55.40
2019-02-27T14:11:27.829Z,55.30
2019-02-27T14:14:00.561Z,54.60
2019-02-27T14:16:34.347Z,54.60
2019-02-27T14:19:01.392Z,54.40
2019-02-27T14:21:35.133Z,54.40
2019-02-27T14:24:02.428Z,54.80
2019-02-27T14:26:32.036Z,54.00
2019-02-27T14:29:01.814Z,53.90
2019-02-27T14:31:31.733Z,53.90
2019-02-27T14:34:01.342Z,53.80
2019-02-27T14:36:30.961Z,54.50
2019-02-27T14:39:00.961Z,53.60
2019-02-27T14:41:32.155Z,53.60
2019-02-27T14:44:03.428Z,53.50
2019-02-27T14:46:32.954Z,53.70
2019-02-27T14:49:04.106Z,53.00
2019-02-27T14:51:33.747Z,53.50
2019-02-27T14:54:03.366Z,53.10
2019-02-27T14:56:33.085Z,52.80
2019-02-27T14:59:02.595Z,53.10
2019-02-27T15:01:32.242Z,52.90
2019-02-27T15:04:01.920Z,53.20
2019-02-27T15:06:31.719Z,53.00
2019-02-27T15:09:03.638Z,53.10
2019-02-27T15:11:34.281Z,53.20
2019-02-27T15:14:03.887Z,52.80
2019-02-27T15:16:33.636Z,52.90
2019-02-27T15:19:03.282Z,53.20
2019-02-27T15:21:32.980Z,53.10
2019-02-27T15:24:02.596Z,51.90
2019-02-27T15:26:32.325Z,52.70
2019-02-27T15:29:03.110Z,52.70
2019-02-27T15:31:33.164Z,52.30
2019-02-27T15:34:02.675Z,52.30
2019-02-27T15:36:32.147Z,52.40
2019-02-27T15:39:01.547Z,52.20
2019-02-27T15:41:35.165Z,53.40
2019-02-27T15:44:03.989Z,52.50
2019-02-27T15:46:33.499Z,52.50
2019-02-27T15:49:05.525Z,52.40
2019-02-27T15:51:35.118Z,52.50
2019-02-27T15:54:06.941Z,52.50
2019-02-27T15:56:41.488Z,52.50
2019-02-27T15:59:08.518Z,52.30
2019-02-27T16:01:38.521Z,52.20
2019-02-27T16:04:08.221Z,51.70
2019-02-27T16:06:39.835Z,51.80
2019-02-27T16:09:10.302Z,52.20
2019-02-27T16:11:41.535Z,52.00
2019-02-27T16:14:11.072Z,51.60
2019-02-27T16:16:41.015Z,52.00
2019-02-27T16:19:11.592Z,52.20
2019-02-27T16:21:41.177Z,52.00
2019-02-27T16:24:10.739Z,51.70
2019-02-27T16:26:40.212Z,51.80
2019-02-27T16:29:09.768Z,51.70
2019-02-27T16:31:40.067Z,51.90
2019-02-27T16:34:10.479Z,52.00
2019-02-27T16:36:39.949Z,52.00
2019-02-27T16:39:10.536Z,52.00
2019-02-27T16:41:40.395Z,52.10
2019-02-27T16:44:11.214Z,52.10
2019-02-27T16:46:44.733Z,51.90
2019-02-27T16:49:13.879Z,52.20
2019-02-27T16:51:43.361Z,52.20
2019-02-27T16:54:13.347Z,52.30
2019-02-27T16:56:46.479Z,52.40
2019-02-27T16:59:14.053Z,52.50
2019-02-27T17:01:44.694Z,52.40
2019-02-27T17:04:14.226Z,52.50
2019-02-27T17:06:49.077Z,52.50
2019-02-27T17:09:17.511Z,52.60
2019-02-27T17:11:47.212Z,52.70
2019-02-27T17:14:16.674Z,52.70
2019-02-27T17:16:48.187Z,53.40
2019-02-27T17:19:17.825Z,52.70
2019-02-27T17:21:47.730Z,52.70
2019-02-27T17:24:21.029Z,52.70
2019-02-27T17:26:48.633Z,52.80
2019-02-27T17:29:18.322Z,52.80
2019-02-27T17:31:49.576Z,52.90
2019-02-27T17:34:19.336Z,52.80
2019-02-27T17:36:48.847Z,52.90
2019-02-27T17:39:18.580Z,53.10
2019-02-27T17:41:48.019Z,52.80
2019-02-27T17:44:17.659Z,53.00
2019-02-27T17:46:47.156Z,52.90
2019-02-27T17:49:22.227Z,53.00
2019-02-27T17:51:51.021Z,52.90
2019-02-27T17:54:20.515Z,53.50
2019-02-27T17:56:50.750Z,53.10
2019-02-27T17:59:20.357Z,53.00
2019-02-27T18:01:51.399Z,53.10
2019-02-27T18:04:20.920Z,53.00
2019-02-27T18:06:50.473Z,53.10
2019-02-27T18:09:20.176Z,53.10
2019-02-27T18:11:52.539Z,53.10
2019-02-27T18:14:20.940Z,53.10
2019-02-27T18:16:51.282Z,53.20
2019-02-27T18:19:20.630Z,53.20
2019-02-27T18:21:50.050Z,53.30
2019-02-27T18:24:19.682Z,53.30
2019-02-27T18:26:51.104Z,53.40
2019-02-27T18:29:21.253Z,53.30
2019-02-27T18:31:52.836Z,53.30
2019-02-27T18:34:23.788Z,53.40
2019-02-27T18:36:53.191Z,53.40
2019-02-27T18:39:22.613Z,53.40
2019-02-27T18:41:52.130Z,54.20
2019-02-27T18:44:21.931Z,53.50
2019-02-27T18:46:51.389Z,53.60
2019-02-27T18:49:21.369Z,53.70
2019-02-27T18:51:50.890Z,53.70
2019-02-27T18:54:22.830Z,53.70
2019-02-27T18:56:52.855Z,53.70
2019-02-27T18:59:22.606Z,53.70
2019-02-27T19:01:52.043Z,53.80
2019-02-27T19:04:21.749Z,53.90
2019-02-27T19:06:51.262Z,53.80
2019-02-27T19:09:20.916Z,53.90
2019-02-27T19:11:50.818Z,53.90
2019-02-27T19:14:20.995Z,53.90
2019-02-27T19:16:52.091Z,53.80
2019-02-27T19:19:21.616Z,53.80
2019-02-27T19:21:51.148Z,53.90
2019-02-27T19:24:26.728Z,54.00
2019-02-27T19:26:51.754Z,54.00
2019-02-27T19:29:21.243Z,54.00
2019-02-27T19:31:51.757Z,54.20
2019-02-27T19:34:21.252Z,54.20
2019-02-27T19:36:50.662Z,54.30
2019-02-27T19:39:21.762Z,54.40
2019-02-27T19:41:51.410Z,54.40
2019-02-27T19:44:21.065Z,54.40
2019-02-27T19:46:50.613Z,54.50
2019-02-27T19:49:20.327Z,54.40
2019-02-27T19:51:54.558Z,54.50
2019-02-27T19:54:22.818Z,54.60
2019-02-27T19:56:52.835Z,54.60
2019-02-27T19:59:24.478Z,54.60
2019-02-27T20:01:53.368Z,54.60
2019-02-27T20:04:22.775Z,54.70
2019-02-27T20:06:52.171Z,54.90
2019-02-27T20:09:21.972Z,54.80
2019-02-27T20:11:51.386Z,54.80
2019-02-27T20:14:20.874Z,54.90
2019-02-27T20:16:54.965Z,55.00
2019-02-27T20:19:25.681Z,55.00
2019-02-27T20:21:53.305Z,55.00
2019-02-27T20:24:22.917Z,55.00
2019-02-27T20:26:54.834Z,55.10
2019-02-27T20:29:23.630Z,55.10
2019-02-27T20:31:54.438Z,55.20
2019-02-27T20:34:24.142Z,55.20
2019-02-27T20:36:53.653Z,55.20
2019-02-27T20:39:32.165Z,55.30
2019-02-27T20:42:01.633Z,55.30
2019-02-27T20:44:49.169Z,55.30
2019-02-27T20:47:24.438Z,55.40
2019-02-27T20:49:53.845Z,55.40
2019-02-27T20:52:41.415Z,55.50
2019-02-27T20:55:10.954Z,55.50
2019-02-27T20:57:42.304Z,55.50
2019-02-27T21:00:16.655Z,55.70
2019-02-27T21:02:46.754Z,55.70
2019-02-27T21:05:17.040Z,55.70
2019-02-27T21:08:04.533Z,55.80
2019-02-27T21:10:35.272Z,55.80
2019-02-27T21:13:07.781Z,55.80
2019-02-27T21:15:37.417Z,55.80
2019-02-27T21:18:06.839Z,55.90
2019-02-27T21:20:36.233Z,55.90
2019-02-27T21:23:05.795Z,56.00
2019-02-27T21:25:35.155Z,56.00
2019-02-27T21:28:07.642Z,56.70
2019-02-27T21:30:36.041Z,56.00
2019-02-27T21:33:08.191Z,56.10
2019-02-27T21:35:36.569Z,56.20
2019-02-27T21:38:06.997Z,56.20
2019-02-27T21:40:36.960Z,56.10
2019-02-27T21:43:07.477Z,56.20
2019-02-27T21:45:37.430Z,56.20
2019-02-27T21:48:07.824Z,56.30
2019-02-27T21:50:39.899Z,56.50
2019-02-27T21:53:08.363Z,56.40
2019-02-27T21:55:37.895Z,56.50
2019-02-27T21:58:07.389Z,56.50
2019-02-27T22:00:36.895Z,56.50
2019-02-27T22:03:06.322Z,56.50
2019-02-27T22:05:42.813Z,56.60
2019-02-27T22:08:08.462Z,56.60
2019-02-27T22:10:37.946Z,56.70
2019-02-27T22:13:10.559Z,56.70
2019-02-27T22:15:38.480Z,56.80
2019-02-27T22:18:11.864Z,56.80
2019-02-27T22:20:41.280Z,56.80
2019-02-27T22:23:12.696Z,56.90
2019-02-27T22:25:42.008Z,57.00
2019-02-27T22:28:11.367Z,57.00
2019-02-27T22:30:40.870Z,57.00
2019-02-27T22:33:11.219Z,57.10
2019-02-27T22:35:40.664Z,57.20
2019-02-27T22:38:11.463Z,57.10
2019-02-27T22:40:40.929Z,57.10
2019-02-27T22:43:10.349Z,57.20
2019-02-27T22:45:43.161Z,57.20
2019-02-27T22:48:10.902Z,57.30
2019-02-27T22:50:41.179Z,57.50
2019-02-27T22:53:11.372Z,57.70
2019-02-27T22:55:42.204Z,57.60
2019-02-27T22:58:11.789Z,57.70
2019-02-27T23:00:56.382Z,57.60
2019-02-27T23:03:30.799Z,57.70
2019-02-27T23:06:01.860Z,57.80
2019-02-27T23:08:31.286Z,57.90
2019-02-27T23:11:02.933Z,57.90
2019-02-27T23:13:31.849Z,57.80
2019-02-27T23:16:01.278Z,58.00
2019-02-27T23:18:31.303Z,58.00
2019-02-27T23:21:00.693Z,58.00
2019-02-27T23:23:30.136Z,58.10
2019-02-27T23:25:59.552Z,58.10
2019-02-27T23:28:28.941Z,58.10
2019-02-27T23:30:58.379Z,58.10
2019-02-27T23:33:27.801Z,58.20
2019-02-27T23:35:57.341Z,58.40
2019-02-27T23:38:26.704Z,58.50
2019-02-27T23:40:56.241Z,58.40
2019-02-27T23:43:25.703Z,58.40
2019-02-27T23:45:55.050Z,58.50
2019-02-27T23:48:24.419Z,58.60
2019-02-27T23:50:53.943Z,58.50
2019-02-27T23:53:24.398Z,58.70
2019-02-27T23:55:54.448Z,58.60
2019-02-27T23:58:23.874Z,58.50
